Time;durP1;ratioP1;P1;durP2;ratioP2;P2;SDS_P1;SDS_P2;PMS_P1;PMS_P2;Temp;Humidity;BMP_temperature;BMP_pressure;BME280_temperature;BME280_humidity;BME280_pressure;Samples;Min_cycle;Max_cycle;Signal;HPM_P1;HPM_P2
2022/10/09 00:00:30;;;;;;;16.03;6.50;;;12.50;63.90;;;;;;4989506;28;20189;-96
2022/10/09 00:03:27;;;;;;;21.27;7.23;;;12.40;63.30;;;;;;4991719;28;20203;-96
2022/10/09 00:05:55;;;;;;;12.93;5.30;;;12.40;64.10;;;;;;4998425;28;20180;-96
2022/10/09 00:11:39;;;;;;;7.40;4.97;;;12.30;64.30;;;;;;5186489;22;20266;-95
2022/10/09 00:16:45;;;;;;;10.53;5.33;;;12.30;64.00;;;;;;5303544;22;20237;-96
2022/10/09 00:19:17;;;;;;;14.73;6.53;;;12.30;64.10;;;;;;5011658;28;20199;-95
2022/10/09 00:27:58;;;;;;;7.90;5.00;;;12.20;64.70;;;;;;5236808;23;20310;-95
2022/10/09 00:30:29;;;;;;;13.57;5.67;;;12.20;64.70;;;;;;4991032;28;20198;-96
2022/10/09 00:33:20;;;;;;;13.83;5.97;;;12.20;64.40;;;;;;4988268;28;20270;-95
2022/10/09 00:35:52;;;;;;;16.30;6.47;;;12.20;64.80;;;;;;4988637;28;20208;-96
2022/10/09 00:39:18;;;;;;;15.87;6.63;;;12.10;64.30;;;;;;4988316;28;20217;-95
2022/10/09 00:45:06;;;;;;;6.90;4.77;;;12.10;64.20;;;;;;4914309;29;20235;-96
2022/10/09 00:51:09;;;;;;;16.23;6.80;;;12.00;65.20;;;;;;4846135;29;20223;-96
2022/10/09 00:53:45;;;;;;;10.00;5.33;;;12.00;64.60;;;;;;4865728;29;20216;-96
2022/10/09 00:56:16;;;;;;;18.57;7.57;;;12.00;64.60;;;;;;4876295;29;20222;-95
2022/10/09 00:58:44;;;;;;;15.27;6.80;;;11.90;64.40;;;;;;4891284;29;20205;-96
2022/10/09 01:08:11;;;;;;;9.03;5.00;;;11.90;64.80;;;;;;4949687;23;20327;-96
2022/10/09 01:14:02;;;;;;;16.90;6.70;;;11.90;65.40;;;;;;4916672;29;20248;-96
2022/10/09 01:16:36;;;;;;;14.77;7.00;;;11.80;64.50;;;;;;4915756;29;20676;-95
2022/10/09 01:26:52;;;;;;;10.33;5.87;;;11.70;65.40;;;;;;4931122;29;20239;-95
2022/10/09 01:29:26;;;;;;;17.83;7.23;;;11.70;64.70;;;;;;4870160;29;20227;-96
2022/10/09 01:34:52;;;;;;;9.50;5.63;;;11.70;64.80;;;;;;5049867;23;20708;-95
2022/10/09 01:41:02;;;;;;;15.40;6.07;;;11.60;65.10;;;;;;4995816;28;20191;-95
2022/10/09 01:43:42;;;;;;;16.73;6.93;;;11.60;65.80;;;;;;4985518;28;20229;-95
2022/10/09 01:46:30;;;;;;;14.17;5.97;;;11.60;64.90;;;;;;4976815;28;20203;-96
2022/10/09 01:49:12;;;;;;;25.77;7.97;;;11.50;65.00;;;;;;4987883;28;20286;-96
2022/10/09 01:51:50;;;;;;;14.23;6.50;;;11.50;65.20;;;;;;4992458;28;20200;-95
2022/10/09 01:57:53;;;;;;;12.43;5.40;;;11.50;65.60;;;;;;4976328;28;20267;-96
2022/10/09 02:00:29;;;;;;;18.80;6.43;;;11.40;65.00;;;;;;4979384;28;20202;-95
2022/10/09 02:03:01;;;;;;;13.33;6.67;;;11.40;65.10;;;;;;4976409;28;20265;-96
2022/10/09 02:05:31;;;;;;;18.20;6.77;;;11.40;65.10;;;;;;4972365;28;20208;-95
2022/10/09 02:07:59;;;;;;;14.27;6.50;;;11.40;65.10;;;;;;4975427;28;20206;-96
2022/10/09 02:13:58;;;;;;;13.03;5.93;;;11.30;65.40;;;;;;4945878;28;20226;-96
2022/10/09 02:19:54;;;;;;;22.07;7.80;;;11.30;65.40;;;;;;4925179;29;20250;-96
2022/10/09 02:26:25;;;;;;;12.73;5.30;;;11.30;65.70;;;;;;4964395;28;20288;-96
2022/10/09 02:32:14;;;;;;;15.10;5.40;;;11.20;65.50;;;;;;4993512;28;20198;-95
2022/10/09 02:34:45;;;;;;;10.50;4.70;;;11.10;65.80;;;;;;4992923;28;20257;-95
2022/10/09 02:37:14;;;;;;;16.17;5.73;;;11.10;65.30;;;;;;4994915;28;20213;-95
2022/10/09 02:39:42;;;;;;;15.73;6.10;;;11.10;65.50;;;;;;4993419;28;20214;-96
2022/10/09 02:42:12;;;;;;;15.33;6.17;;;11.10;65.50;;;;;;4989139;28;20210;-96
2022/10/09 02:44:41;;;;;;;16.27;6.13;;;11.00;65.50;;;;;;4975515;28;20219;-95
2022/10/09 02:47:20;;;;;;;9.77;4.80;;;11.10;65.50;;;;;;4974868;28;20205;-96
2022/10/09 02:53:12;;;;;;;10.60;4.77;;;11.00;65.40;;;;;;4915719;29;20196;-96
2022/10/09 02:55:50;;;;;;;12.20;5.53;;;10.90;65.50;;;;;;4914508;29;20200;-95
2022/10/09 02:58:18;;;;;;;11.53;5.23;;;11.00;65.40;;;;;;4957989;28;20706;-96
2022/10/09 03:00:51;;;;;;;12.10;6.03;;;10.90;65.10;;;;;;4976873;28;20208;-95
2022/10/09 03:04:20;;;;;;;11.17;4.80;;;10.90;65.40;;;;;;4974135;28;20207;-96
2022/10/09 03:07:29;;;;;;;8.83;4.80;;;10.90;65.70;;;;;;4960968;28;20206;-95
2022/10/09 03:09:59;;;;;;;11.30;5.30;;;10.80;65.60;;;;;;4975674;28;20599;-95
2022/10/09 03:16:20;;;;;;;7.27;4.10;;;10.80;65.70;;;;;;4976589;28;20229;-95
2022/10/09 03:18:54;;;;;;;9.63;4.70;;;10.70;65.70;;;;;;4970741;28;20202;-95
2022/10/09 03:22:14;;;;;;;10.93;4.87;;;10.70;65.40;;;;;;4974590;28;20257;-96
2022/10/09 03:24:43;;;;;;;11.50;4.87;;;10.70;65.80;;;;;;4976563;28;20615;-96
2022/10/09 03:27:26;;;;;;;14.87;6.10;;;10.60;65.30;;;;;;4977581;28;20194;-96
2022/10/09 03:30:09;;;;;;;8.67;4.30;;;10.60;65.70;;;;;;4971655;28;20915;-96
2022/10/09 03:32:42;;;;;;;9.73;4.73;;;10.60;65.60;;;;;;4979691;28;20241;-96
2022/10/09 03:38:37;;;;;;;12.17;5.00;;;10.60;66.00;;;;;;4981491;28;20194;-96
2022/10/09 03:41:10;;;;;;;12.90;5.33;;;10.50;65.60;;;;;;4984401;28;20207;-96
2022/10/09 03:52:43;;;;;;;10.93;4.23;;;10.50;66.20;;;;;;5920254;23;21142;-96
2022/10/09 04:02:03;;;;;;;50.57;14.20;;;10.40;66.40;;;;;;5554920;22;20334;-96
2022/10/09 04:04:32;;;;;;;12.37;4.97;;;10.40;66.10;;;;;;5012122;28;20210;-96
2022/10/09 04:07:02;;;;;;;10.83;5.10;;;10.30;66.20;;;;;;5006902;28;20241;-96
2022/10/09 04:09:43;;;;;;;15.93;5.33;;;10.30;66.40;;;;;;5004053;28;20234;-96
2022/10/09 04:12:58;;;;;;;17.03;5.60;;;10.30;66.50;;;;;;5003945;28;20202;-96
2022/10/09 04:18:48;;;;;;;89.80;22.83;;;10.30;66.50;;;;;;5036658;22;20180;-96
2022/10/09 04:21:16;;;;;;;10.80;4.80;;;10.30;66.30;;;;;;5017933;28;20182;-96
2022/10/09 04:23:50;;;;;;;7.60;4.10;;;10.30;66.40;;;;;;5017101;28;20206;-96
2022/10/09 04:26:23;;;;;;;10.00;4.63;;;10.30;66.50;;;;;;5014075;28;20189;-96
2022/10/09 04:35:47;;;;;;;13.50;5.23;;;10.20;66.40;;;;;;4996519;28;20214;-96
2022/10/09 04:38:26;;;;;;;14.23;5.33;;;10.20;66.30;;;;;;5015731;28;20186;-96
2022/10/09 04:41:19;;;;;;;9.50;5.03;;;10.20;66.40;;;;;;5008223;28;20203;-96
2022/10/09 04:43:55;;;;;;;8.73;4.00;;;10.20;67.10;;;;;;5004589;28;20707;-96
2022/10/09 04:46:38;;;;;;;14.33;5.20;;;10.20;66.90;;;;;;5000752;28;20285;-96
2022/10/09 04:49:27;;;;;;;12.13;4.97;;;10.20;67.00;;;;;;4996298;28;20273;-96
2022/10/09 04:52:03;;;;;;;9.13;4.37;;;10.20;67.40;;;;;;4988125;28;20276;-96
2022/10/09 04:54:32;;;;;;;14.47;5.77;;;10.10;67.10;;;;;;4994544;28;20548;-96
2022/10/09 04:57:06;;;;;;;16.20;5.53;;;10.10;67.10;;;;;;4995158;28;20208;-96
2022/10/09 04:59:51;;;;;;;13.87;5.80;;;10.10;67.30;;;;;;4996966;28;20202;-96
2022/10/09 05:02:19;;;;;;;10.80;4.73;;;10.10;67.80;;;;;;4999792;28;20206;-96
2022/10/09 05:04:47;;;;;;;7.73;4.23;;;10.10;67.40;;;;;;4999456;28;20206;-96
2022/10/09 05:08:00;;;;;;;9.03;4.47;;;10.10;67.60;;;;;;4992183;28;20298;-96
2022/10/09 05:10:30;;;;;;;9.90;4.67;;;10.10;68.10;;;;;;4967169;28;20300;-96
2022/10/09 05:12:57;;;;;;;13.23;5.43;;;10.10;67.50;;;;;;4999504;28;20622;-96
2022/10/09 05:15:27;;;;;;;13.30;5.50;;;10.10;67.50;;;;;;5001400;28;20233;-96
2022/10/09 05:20:54;;;;;;;7.70;4.10;;;10.10;68.10;;;;;;4997944;28;20218;-95
2022/10/09 05:24:13;;;;;;;12.43;5.43;;;10.10;67.80;;;;;;5000243;28;20210;-95
2022/10/09 05:26:54;;;;;;;10.13;4.43;;;10.10;68.10;;;;;;4938657;29;20204;-96
2022/10/09 05:29:29;;;;;;;11.27;4.63;;;10.10;68.10;;;;;;4991168;28;20691;-96
2022/10/09 05:32:00;;;;;;;14.07;5.60;;;10.10;68.10;;;;;;4995447;28;20202;-95
2022/10/09 05:37:50;;;;;;;9.43;4.23;;;10.10;68.30;;;;;;4985188;28;20203;-96
2022/10/09 05:40:24;;;;;;;17.93;5.47;;;10.10;67.70;;;;;;4998403;28;20552;-96
2022/10/09 05:43:21;;;;;;;11.60;4.23;;;10.10;67.90;;;;;;4996226;28;20218;-95
2022/10/09 05:45:49;;;;;;;17.73;6.00;;;10.00;68.50;;;;;;4996979;28;20636;-94
2022/10/09 05:48:24;;;;;;;18.33;6.17;;;10.00;67.80;;;;;;4994300;28;20705;-96
2022/10/09 05:50:52;;;;;;;8.10;3.80;;;10.00;68.10;;;;;;4995541;28;20257;-94
2022/10/09 05:53:20;;;;;;;10.00;4.33;;;10.00;68.00;;;;;;5000753;28;20198;-94
2022/10/09 05:55:48;;;;;;;14.27;5.00;;;10.00;68.00;;;;;;5001263;28;20205;-94
2022/10/09 05:58:21;;;;;;;8.63;4.10;;;10.00;68.00;;;;;;5001351;28;20221;-94
2022/10/09 06:00:49;;;;;;;11.57;4.30;;;10.00;68.30;;;;;;5000446;28;20212;-95
2022/10/09 06:03:38;;;;;;;10.03;4.43;;;10.00;68.10;;;;;;5000808;28;20831;-94
2022/10/09 06:06:08;;;;;;;11.63;4.37;;;10.00;68.50;;;;;;4997424;28;20207;-94
2022/10/09 06:11:35;;;;;;;9.03;3.47;;;10.00;68.50;;;;;;5000262;28;20210;-94
2022/10/09 06:14:08;;;;;;;7.03;3.37;;;10.00;68.50;;;;;;4999831;28;20297;-95
2022/10/09 06:16:38;;;;;;;12.23;4.40;;;10.00;68.70;;;;;;4992899;28;20284;-93
2022/10/09 06:19:17;;;;;;;11.50;4.67;;;10.00;68.60;;;;;;4993079;28;20209;-93
2022/10/09 06:21:45;;;;;;;7.80;4.17;;;10.00;68.80;;;;;;4994685;28;20670;-96
2022/10/09 06:24:19;;;;;;;13.60;5.27;;;10.00;68.60;;;;;;4992564;28;20202;-92
2022/10/09 06:26:59;;;;;;;10.00;4.50;;;10.00;69.00;;;;;;4993076;28;20722;-96
2022/10/09 06:29:28;;;;;;;10.17;4.60;;;9.90;69.90;;;;;;4993850;28;20214;-91
2022/10/09 06:32:04;;;;;;;15.43;5.17;;;9.90;69.80;;;;;;4995045;28;20257;-92
2022/10/09 06:34:33;;;;;;;11.30;4.23;;;10.00;68.90;;;;;;4994413;28;20200;-91
2022/10/09 06:37:00;;;;;;;10.47;4.40;;;9.90;70.00;;;;;;4995062;28;20210;-92
2022/10/09 06:39:27;;;;;;;11.60;4.60;;;9.90;70.80;;;;;;4994883;28;20210;-94
2022/10/09 06:42:02;;;;;;;10.77;4.73;;;9.90;70.00;;;;;;4995474;28;20299;-94
2022/10/09 06:44:30;;;;;;;11.03;4.73;;;9.90;70.30;;;;;;4991560;28;20215;-92
2022/10/09 06:46:57;;;;;;;13.60;4.77;;;9.90;70.00;;;;;;4993590;28;20844;-93
2022/10/09 06:49:24;;;;;;;11.73;4.17;;;9.90;70.20;;;;;;4997167;28;20225;-95
2022/10/09 06:51:53;;;;;;;11.80;4.73;;;9.90;70.30;;;;;;5002842;28;20190;-93
2022/10/09 06:54:22;;;;;;;8.53;4.47;;;9.90;70.50;;;;;;5001577;28;20221;-93
2022/10/09 06:56:50;;;;;;;12.43;5.17;;;9.90;70.90;;;;;;4999419;28;20194;-93
2022/10/09 06:59:18;;;;;;;11.50;5.33;;;10.00;69.80;;;;;;4998109;28;20206;-95
2022/10/09 07:01:46;;;;;;;13.33;5.33;;;10.00;69.80;;;;;;4999058;28;20206;-93
2022/10/09 07:04:17;;;;;;;13.37;5.57;;;10.00;70.30;;;;;;4996063;28;20249;-94
2022/10/09 07:06:47;;;;;;;15.17;6.00;;;10.00;70.60;;;;;;5002659;28;20226;-93
2022/10/09 07:09:16;;;;;;;14.07;5.87;;;10.00;70.40;;;;;;4996741;28;20778;-93
2022/10/09 07:11:47;;;;;;;15.23;5.53;;;10.00;70.60;;;;;;4998932;28;20217;-94
2022/10/09 07:14:32;;;;;;;12.57;4.97;;;10.10;70.90;;;;;;5000098;28;20463;-92
2022/10/09 07:17:02;;;;;;;10.83;5.07;;;10.10;70.90;;;;;;4998396;28;20233;-92
2022/10/09 07:19:30;;;;;;;13.03;5.23;;;10.10;70.70;;;;;;4995628;28;20218;-92
2022/10/09 07:21:59;;;;;;;15.67;4.53;;;10.20;70.80;;;;;;5000013;28;20717;-94
2022/10/09 07:24:29;;;;;;;9.63;4.67;;;10.20;71.00;;;;;;5006719;28;20207;-94
2022/10/09 07:29:48;;;;;;;14.87;5.87;;;10.30;72.10;;;;;;5002898;28;20221;-91
2022/10/09 07:32:18;;;;;;;13.07;4.90;;;10.30;72.00;;;;;;5008322;28;20202;-92
2022/10/09 07:34:45;;;;;;;10.27;4.83;;;10.30;72.30;;;;;;5008099;28;20209;-93
2022/10/09 07:37:12;;;;;;;13.47;4.20;;;10.40;72.50;;;;;;5010833;28;20207;-94
2022/10/09 07:39:41;;;;;;;15.60;5.53;;;10.50;72.80;;;;;;5002876;28;20234;-91
2022/10/09 07:42:11;;;;;;;13.20;5.63;;;10.50;73.10;;;;;;5010678;28;20201;-91
2022/10/09 07:44:38;;;;;;;13.73;5.20;;;10.60;73.10;;;;;;4998538;28;20237;-92
2022/10/09 07:47:05;;;;;;;16.57;6.33;;;10.60;73.20;;;;;;4992315;28;20210;-94
2022/10/09 07:49:33;;;;;;;10.37;4.37;;;10.70;73.50;;;;;;5002047;28;20207;-96
2022/10/09 07:52:06;;;;;;;15.43;5.47;;;10.70;73.80;;;;;;5001965;28;20205;-96
2022/10/09 07:54:33;;;;;;;13.33;5.33;;;10.70;75.10;;;;;;5002940;28;20221;-96
2022/10/09 07:57:05;;;;;;;15.07;5.70;;;10.80;75.20;;;;;;5003524;28;20209;-93
2022/10/09 07:59:33;;;;;;;14.63;5.77;;;10.90;76.70;;;;;;5004650;28;20269;-92
2022/10/09 08:02:00;;;;;;;10.73;5.23;;;11.00;77.10;;;;;;5015238;28;20187;-96
2022/10/09 08:04:27;;;;;;;11.67;4.83;;;11.10;78.30;;;;;;5004244;28;20211;-96
2022/10/09 08:06:57;;;;;;;14.90;5.67;;;11.30;78.60;;;;;;4998569;28;20210;-95
2022/10/09 08:09:26;;;;;;;11.50;5.13;;;11.40;79.60;;;;;;4997858;28;20320;-91
2022/10/09 08:11:53;;;;;;;10.33;4.67;;;11.60;80.80;;;;;;4993752;28;20203;-92
2022/10/09 08:14:30;;;;;;;13.00;4.50;;;11.90;80.60;;;;;;4996292;28;20632;-93
2022/10/09 08:17:00;;;;;;;15.43;5.27;;;12.10;82.00;;;;;;4996032;28;20240;-93
2022/10/09 08:19:29;;;;;;;10.70;4.40;;;12.40;81.20;;;;;;4993984;28;20228;-92
2022/10/09 08:21:56;;;;;;;7.07;4.07;;;12.60;80.80;;;;;;4998269;28;20221;-93
2022/10/09 08:37:38;;;;;;;8.37;4.30;;;14.00;79.60;;;;;;5001750;28;20202;-95
2022/10/09 08:43:38;;;;;;;11.47;4.53;;;14.40;79.60;;;;;;5000802;28;20218;-96
2022/10/09 08:46:13;;;;;;;9.73;4.47;;;14.80;80.00;;;;;;4996573;28;20201;-96
2022/10/09 08:48:44;;;;;;;10.00;4.13;;;15.10;76.70;;;;;;5002627;28;20556;-95
2022/10/09 08:52:01;;;;;;;13.37;4.83;;;15.40;75.60;;;;;;4995949;28;20238;-96
2022/10/09 08:54:37;;;;;;;8.83;4.13;;;15.70;75.20;;;;;;4972638;28;20299;-93
2022/10/09 08:57:25;;;;;;;11.93;4.30;;;16.00;74.00;;;;;;4997327;28;20254;-94
2022/10/09 08:59:53;;;;;;;9.00;3.83;;;16.40;72.50;;;;;;4991975;28;21432;-94
2022/10/09 09:03:07;;;;;;;11.80;4.93;;;16.60;72.20;;;;;;5002635;28;20650;-96
2022/10/09 09:05:50;;;;;;;10.17;4.03;;;17.00;70.70;;;;;;5007357;28;20190;-95
2022/10/09 09:08:41;;;;;;;10.17;4.30;;;17.30;70.30;;;;;;5012832;28;20204;-96
2022/10/09 09:11:25;;;;;;;10.03;3.70;;;17.60;69.60;;;;;;4998764;28;20276;-93
2022/10/09 09:14:00;;;;;;;8.63;3.67;;;17.90;68.20;;;;;;4992219;28;20214;-94
2022/10/09 09:16:39;;;;;;;5.57;2.83;;;18.20;68.00;;;;;;4995301;28;20221;-93
2022/10/09 09:19:55;;;;;;;8.80;2.33;;;18.50;66.40;;;;;;4999877;28;20202;-94
2022/10/09 09:22:23;;;;;;;25.30;8.90;;;18.70;65.10;;;;;;5393798;23;20206;-91
2022/10/09 09:24:53;;;;;;;7.37;3.20;;;19.00;66.90;;;;;;4977215;28;20209;-92
2022/10/09 09:27:32;;;;;;;6.03;2.70;;;19.20;65.50;;;;;;4988455;28;20206;-96
2022/10/09 09:33:05;;;;;;;8.90;3.93;;;19.70;62.80;;;;;;4983657;28;20234;-93
2022/10/09 09:36:14;;;;;;;12.47;5.30;;;19.90;63.40;;;;;;4987052;28;20202;-93
2022/10/09 09:38:53;;;;;;;11.80;4.43;;;20.10;62.00;;;;;;4972152;28;20202;-95
2022/10/09 09:42:10;;;;;;;9.40;4.03;;;20.30;61.80;;;;;;4979290;28;20206;-96
2022/10/09 09:44:48;;;;;;;5.10;2.97;;;20.50;60.90;;;;;;4951533;29;20211;-94
2022/10/09 09:47:38;;;;;;;9.93;4.43;;;20.70;60.40;;;;;;4958834;29;20671;-95
2022/10/09 09:50:28;;;;;;;9.17;4.37;;;20.80;59.90;;;;;;4961451;28;20231;-95
2022/10/09 09:53:04;;;;;;;12.23;4.03;;;21.00;60.30;;;;;;4908332;29;20206;-95
2022/10/09 09:59:26;;;;;;;7.60;3.23;;;21.30;59.60;;;;;;4958112;29;20188;-96
2022/10/09 10:02:03;;;;;;;7.00;3.30;;;21.40;59.40;;;;;;4956059;29;20199;-94
2022/10/09 10:04:33;;;;;;;9.70;3.80;;;21.60;59.10;;;;;;4955381;29;20647;-93
2022/10/09 10:07:04;;;;;;;6.10;3.30;;;21.80;59.30;;;;;;4952914;29;20215;-95
2022/10/09 10:10:03;;;;;;;8.23;3.80;;;21.90;59.00;;;;;;4953091;29;20650;-94
2022/10/09 10:12:32;;;;;;;10.50;3.67;;;22.10;58.20;;;;;;4962191;28;20206;-90
2022/10/09 10:15:05;;;;;;;5.60;2.97;;;22.20;59.20;;;;;;4972630;28;20206;-93
2022/10/09 10:18:03;;;;;;;7.30;2.93;;;22.40;59.30;;;;;;4958994;29;20234;-93
2022/10/09 10:20:32;;;;;;;8.33;2.93;;;22.60;57.70;;;;;;4956797;29;20298;-93
2022/10/09 10:23:00;;;;;;;4.33;2.00;;;22.80;58.70;;;;;;4959673;28;20218;-94
2022/10/09 10:25:37;;;;;;;4.97;2.47;;;23.00;58.10;;;;;;4959234;29;20204;-93
2022/10/09 10:28:32;;;;;;;9.00;3.47;;;23.10;57.10;;;;;;4957331;29;20223;-95
2022/10/09 10:31:50;;;;;;;4.50;2.43;;;23.30;56.50;;;;;;4954840;28;20247;-94
2022/10/09 10:34:23;;;;;;;3.40;2.23;;;23.50;55.50;;;;;;4956340;28;20210;-94
2022/10/09 10:36:56;;;;;;;6.20;3.23;;;23.60;56.00;;;;;;4958350;29;20199;-93
2022/10/09 10:39:41;;;;;;;6.93;3.27;;;23.70;56.40;;;;;;4963263;29;20199;-93
2022/10/09 10:42:29;;;;;;;7.97;3.20;;;23.80;54.70;;;;;;4963436;28;20227;-96
2022/10/09 10:45:03;;;;;;;6.03;3.20;;;23.90;54.30;;;;;;4955803;29;20657;-95
2022/10/09 10:47:59;;;;;;;7.53;3.57;;;24.10;54.50;;;;;;4953745;29;20628;-95
2022/10/09 10:50:53;;;;;;;9.93;3.93;;;24.10;54.00;;;;;;4954430;28;20223;-94
2022/10/09 10:56:37;;;;;;;7.37;3.33;;;24.30;53.00;;;;;;4938599;28;20254;-92
2022/10/09 10:59:35;;;;;;;5.60;2.93;;;24.40;53.80;;;;;;4954216;29;20211;-96
2022/10/09 11:05:37;;;;;;;6.13;2.60;;;24.40;52.40;;;;;;4957899;29;20186;-93
2022/10/09 11:08:21;;;;;;;10.00;3.93;;;24.40;53.10;;;;;;4962060;29;20259;-95
2022/10/09 11:11:04;;;;;;;6.67;3.20;;;24.40;53.40;;;;;;4962661;28;20312;-96
2022/10/09 11:13:44;;;;;;;5.93;3.40;;;24.50;52.60;;;;;;4965272;29;20223;-96
2022/10/09 11:16:31;;;;;;;8.87;3.97;;;24.50;52.00;;;;;;4968665;29;20231;-96
2022/10/09 11:19:34;;;;;;;38.83;16.53;;;24.50;52.60;;;;;;5296063;22;20199;-96
2022/10/09 11:22:13;;;;;;;7.10;2.80;;;24.60;52.20;;;;;;5006658;28;20208;-96
2022/10/09 11:25:07;;;;;;;5.30;2.27;;;24.60;52.70;;;;;;5008391;28;20209;-92
2022/10/09 11:31:01;;;;;;;5.47;2.43;;;24.80;51.40;;;;;;4992619;28;20209;-95
2022/10/09 11:33:42;;;;;;;5.57;2.57;;;24.90;51.70;;;;;;5011254;28;20198;-96
2022/10/09 11:40:05;;;;;;;4.53;2.30;;;25.00;51.30;;;;;;4965987;28;20204;-96
2022/10/09 11:46:03;;;;;;;7.43;2.60;;;25.10;50.70;;;;;;5006713;28;20298;-93
2022/10/09 11:48:42;;;;;;;6.77;2.97;;;25.30;51.30;;;;;;5005744;28;20261;-96
2022/10/09 11:51:23;;;;;;;5.67;2.10;;;25.40;51.50;;;;;;5004885;28;20249;-96
2022/10/09 11:53:55;;;;;;;8.60;2.87;;;25.50;51.30;;;;;;5007469;28;20205;-93
2022/10/09 11:56:28;;;;;;;4.93;2.07;;;25.60;51.90;;;;;;5006851;28;20228;-96
2022/10/09 12:02:36;;;;;;;8.57;2.60;;;25.90;50.30;;;;;;5001226;28;20206;-94
2022/10/09 12:05:17;;;;;;;4.33;2.40;;;26.10;49.50;;;;;;5002269;28;20209;-93
2022/10/09 12:10:47;;;;;;;3.03;1.40;;;26.30;50.30;;;;;;4996825;28;20595;-96
2022/10/09 12:13:52;;;;;;;2.93;1.40;;;26.40;50.00;;;;;;5001196;28;20206;-95
2022/10/09 12:17:08;;;;;;;32.00;13.33;;;26.50;48.60;;;;;;5010152;22;20264;-94
2022/10/09 12:19:40;;;;;;;5.73;2.40;;;26.70;48.70;;;;;;4993394;28;20654;-93
2022/10/09 12:22:15;;;;;;;7.77;3.17;;;26.80;48.40;;;;;;5003694;28;20202;-94
2022/10/09 12:24:48;;;;;;;5.93;2.23;;;26.80;48.00;;;;;;4999167;28;20194;-94
2022/10/09 12:27:25;;;;;;;4.70;2.00;;;26.90;48.30;;;;;;5001777;28;20201;-95
2022/10/09 12:29:56;;;;;;;5.60;2.10;;;26.90;48.40;;;;;;5006523;28;20265;-94
2022/10/09 12:32:30;;;;;;;6.73;2.73;;;27.00;48.50;;;;;;5000261;28;20272;-96
2022/10/09 12:35:22;;;;;;;6.00;2.80;;;27.00;47.70;;;;;;4995518;28;20213;-96
2022/10/09 12:37:56;;;;;;;5.47;2.67;;;27.00;46.70;;;;;;4997608;28;20202;-95
2022/10/09 12:40:33;;;;;;;7.43;3.03;;;27.00;47.30;;;;;;4998695;28;20671;-96
2022/10/09 12:43:07;;;;;;;10.43;4.53;;;27.00;46.50;;;;;;5016223;22;20265;-93
2022/10/09 12:50:41;;;;;;;4.90;2.53;;;27.10;47.50;;;;;;5018026;28;20210;-96
2022/10/09 12:53:17;;;;;;;3.17;1.90;;;27.10;47.90;;;;;;5020804;28;20209;-96
2022/10/09 12:55:49;;;;;;;6.03;3.37;;;27.10;47.20;;;;;;5018719;28;20201;-94
2022/10/09 12:58:26;;;;;;;5.93;2.60;;;27.20;46.70;;;;;;5025136;28;20260;-95
2022/10/09 13:00:56;;;;;;;7.47;4.00;;;27.20;46.00;;;;;;5034571;28;20189;-92
2022/10/09 13:06:27;;;;;;;6.57;3.33;;;27.20;46.00;;;;;;5023766;28;20194;-96
2022/10/09 13:16:16;;;;;;;7.33;3.37;;;27.30;46.00;;;;;;5001996;28;20671;-96
2022/10/09 13:19:02;;;;;;;6.43;2.77;;;27.20;46.00;;;;;;5004284;28;20226;-95
2022/10/09 13:21:37;;;;;;;5.23;2.77;;;27.30;46.60;;;;;;4997807;28;20206;-96
2022/10/09 13:24:09;;;;;;;7.00;2.27;;;27.30;45.80;;;;;;4997678;28;20209;-96
2022/10/09 13:26:36;;;;;;;8.80;4.20;;;27.40;45.60;;;;;;4991808;28;20207;-92
2022/10/09 13:29:21;;;;;;;5.50;2.90;;;27.30;45.50;;;;;;4999276;28;20221;-96
2022/10/09 13:38:18;;;;;;;6.40;2.27;;;27.20;46.20;;;;;;5000667;28;20230;-96
2022/10/09 13:41:10;;;;;;;5.20;2.33;;;27.20;45.90;;;;;;4994447;28;20714;-96
2022/10/09 13:43:47;;;;;;;3.83;2.27;;;27.20;45.30;;;;;;4986692;28;20199;-96
2022/10/09 13:46:18;;;;;;;5.53;2.73;;;27.20;45.00;;;;;;4980778;28;20210;-95
2022/10/09 13:48:52;;;;;;;10.13;3.03;;;27.20;45.10;;;;;;4985118;28;20277;-96
2022/10/09 13:51:28;;;;;;;5.80;2.70;;;27.20;44.80;;;;;;4983100;28;20293;-96
2022/10/09 13:58:17;;;;;;;6.63;3.03;;;27.20;44.30;;;;;;5035197;22;20237;-96
2022/10/09 14:00:54;;;;;;;5.73;2.70;;;27.10;44.80;;;;;;4966842;28;20210;-96
2022/10/09 14:04:09;;;;;;;7.47;3.80;;;27.10;44.90;;;;;;5003196;28;20190;-94
2022/10/09 14:06:36;;;;;;;8.13;3.20;;;26.90;44.70;;;;;;4999959;28;20198;-95
2022/10/09 14:09:17;;;;;;;9.20;4.63;;;26.80;45.10;;;;;;4993077;28;20226;-94
2022/10/09 14:11:48;;;;;;;7.07;3.37;;;26.70;44.40;;;;;;4995720;28;20230;-96
2022/10/09 14:14:21;;;;;;;7.07;2.93;;;26.50;44.30;;;;;;4999009;28;20205;-94
2022/10/09 14:17:00;;;;;;;5.47;3.00;;;26.40;44.60;;;;;;4996438;28;20264;-96
2022/10/09 14:19:28;;;;;;;4.90;2.87;;;26.20;44.20;;;;;;5009847;28;20198;-96
2022/10/09 14:21:59;;;;;;;5.97;2.83;;;25.90;44.60;;;;;;4995260;28;20273;-93
2022/10/09 14:24:27;;;;;;;5.83;3.00;;;25.80;44.60;;;;;;4992362;28;20210;-94
2022/10/09 14:26:57;;;;;;;8.23;4.00;;;25.50;44.80;;;;;;5007231;28;20262;-94
2022/10/09 14:29:25;;;;;;;8.70;3.23;;;25.40;45.00;;;;;;5000218;28;20322;-94
2022/10/09 14:32:09;;;;;;;11.33;4.13;;;25.20;45.10;;;;;;5227862;23;20248;-94
2022/10/09 14:34:38;;;;;;;8.37;3.70;;;24.90;45.50;;;;;;5005955;28;20206;-91
2022/10/09 14:37:08;;;;;;;6.83;3.23;;;24.80;45.90;;;;;;5009538;28;20202;-95
2022/10/09 14:39:35;;;;;;;5.87;2.77;;;24.60;45.80;;;;;;5004277;28;20211;-95
2022/10/09 14:42:32;;;;;;;5.33;2.67;;;24.50;46.10;;;;;;5002113;28;20218;-94
2022/10/09 14:45:01;;;;;;;6.43;2.77;;;24.30;46.10;;;;;;4998491;28;20229;-94
2022/10/09 14:48:08;;;;;;;5.00;2.60;;;24.30;46.60;;;;;;4998209;28;20201;-96
2022/10/09 14:50:53;;;;;;;5.33;2.17;;;24.10;46.30;;;;;;4998873;28;20210;-96
2022/10/09 14:53:23;;;;;;;9.03;4.00;;;24.00;46.60;;;;;;4996722;28;20216;-93
2022/10/09 14:55:50;;;;;;;9.17;3.60;;;24.00;46.60;;;;;;4997588;28;20240;-92
2022/10/09 14:58:17;;;;;;;8.07;3.33;;;23.90;46.90;;;;;;4996112;28;20221;-93
2022/10/09 15:00:51;;;;;;;6.83;2.70;;;23.80;46.80;;;;;;4994199;28;20217;-94
2022/10/09 15:03:19;;;;;;;10.10;3.80;;;23.70;47.00;;;;;;4999180;28;20296;-92
2022/10/09 15:06:13;;;;;;;5.77;2.57;;;23.70;47.90;;;;;;5002181;28;20194;-93
2022/10/09 15:08:42;;;;;;;7.40;2.80;;;23.60;47.30;;;;;;4975001;28;20204;-92
2022/10/09 15:11:22;;;;;;;9.03;3.97;;;23.60;47.60;;;;;;4974823;28;20203;-94
2022/10/09 15:13:51;;;;;;;5.27;2.77;;;23.50;47.00;;;;;;4973806;28;20201;-94
2022/10/09 15:16:19;;;;;;;7.13;3.27;;;23.40;47.20;;;;;;4972581;28;20202;-94
2022/10/09 15:18:50;;;;;;;7.90;3.30;;;23.40;47.50;;;;;;4959561;28;20265;-94
2022/10/09 15:21:20;;;;;;;6.07;2.87;;;23.40;47.60;;;;;;4965985;28;20261;-94
2022/10/09 15:23:50;;;;;;;11.90;4.03;;;23.30;47.70;;;;;;4978554;28;20204;-93
2022/10/09 15:26:39;;;;;;;5.63;2.60;;;23.30;47.90;;;;;;4987487;28;20199;-95
2022/10/09 15:29:34;;;;;;;8.90;3.63;;;23.30;48.00;;;;;;4966354;28;20262;-96
2022/10/09 15:32:02;;;;;;;7.73;3.33;;;23.20;48.40;;;;;;4971486;28;20296;-92
2022/10/09 15:37:42;;;;;;;6.00;2.83;;;23.10;48.00;;;;;;4952192;28;20225;-95
2022/10/09 15:40:27;;;;;;;16.13;5.60;;;23.10;48.20;;;;;;4968716;28;20229;-94
2022/10/09 15:46:19;;;;;;;7.70;3.13;;;23.10;48.10;;;;;;5197659;23;20222;-95
2022/10/09 15:52:29;;;;;;;4.60;2.33;;;23.00;48.50;;;;;;4988990;28;20208;-95
2022/10/09 15:55:05;;;;;;;4.80;2.20;;;22.90;48.70;;;;;;4977457;28;20568;-95
2022/10/09 15:58:08;;;;;;;7.60;3.03;;;22.90;48.60;;;;;;5016092;23;20276;-95
2022/10/09 16:00:40;;;;;;;6.50;2.80;;;22.80;48.80;;;;;;4988057;23;20227;-95
2022/10/09 16:03:35;;;;;;;7.13;2.67;;;22.80;48.80;;;;;;4982356;28;20207;-96
2022/10/09 16:06:45;;;;;;;12.43;4.77;;;22.80;49.00;;;;;;4976054;28;20218;-95
2022/10/09 16:09:16;;;;;;;11.10;4.27;;;22.70;48.80;;;;;;4977381;28;20211;-94
2022/10/09 16:11:46;;;;;;;28.53;11.00;;;22.70;48.90;;;;;;4990367;23;20233;-95
2022/10/09 16:15:00;;;;;;;7.80;3.07;;;22.70;49.00;;;;;;4961725;28;20262;-94
2022/10/09 16:18:19;;;;;;;;;;;;;;;;;;;;;
2022/10/09 16:20:58;;;;;;;7.00;2.93;;;22.70;49.70;;;;;;4964387;28;20204;-95
2022/10/09 16:23:25;;;;;;;5.30;3.00;;;22.60;49.00;;;;;;4961157;28;20211;-95
2022/10/09 16:25:58;;;;;;;11.13;4.27;;;22.50;49.00;;;;;;4984293;28;20218;-95
2022/10/09 16:28:28;;;;;;;10.87;4.23;;;22.50;49.20;;;;;;4979506;28;20214;-96
2022/10/09 16:31:27;;;;;;;6.80;3.03;;;22.40;49.30;;;;;;4981839;28;20220;-96
2022/10/09 16:33:55;;;;;;;6.43;3.00;;;22.40;49.30;;;;;;4956967;28;20806;-95
2022/10/09 16:36:25;;;;;;;12.57;4.93;;;22.40;49.20;;;;;;4971298;28;20206;-96
2022/10/09 16:42:24;;;;;;;14.60;5.50;;;22.30;49.80;;;;;;4970536;28;20573;-94
2022/10/09 16:45:15;;;;;;;11.53;3.80;;;22.20;49.30;;;;;;4965552;28;20226;-94
2022/10/09 16:47:59;;;;;;;5.30;2.53;;;22.20;49.70;;;;;;4978005;28;20210;-93
2022/10/09 16:50:27;;;;;;;6.67;2.70;;;22.10;49.60;;;;;;4976577;28;20214;-94